Time;durP1;ratioP1;P1;durP2;ratioP2;P2;SDS_P1;SDS_P2;PMS_P1;PMS_P2;Temp;Humidity;BMP_temperature;BMP_pressure;BME280_temperature;BME280_humidity;BME280_pressure;Samples;Min_cycle;Max_cycle;Signal;HPM_P1;HPM_P2
2022/06/24 00:01:42;;;;;;;3.90;0.90;;;24.00;99.90;;;;;;5020818;28;20491;-78
2022/06/24 00:04:10;;;;;;;1.70;0.70;;;24.00;99.90;;;;;;5025923;28;20469;-79
2022/06/24 00:06:46;;;;;;;3.03;1.03;;;23.40;99.90;;;;;;5025399;28;20504;-79
2022/06/24 00:09:17;;;;;;;2.70;0.90;;;23.90;99.90;;;;;;5025001;28;20459;-79
2022/06/24 00:11:46;;;;;;;1.90;0.73;;;23.90;99.90;;;;;;5027676;28;20837;-79
2022/06/24 00:14:16;;;;;;;1.17;0.83;;;23.80;99.90;;;;;;5025569;28;20455;-79
2022/06/24 00:16:54;;;;;;;1.20;0.60;;;23.80;99.90;;;;;;5022705;28;20971;-78
2022/06/24 00:19:24;;;;;;;2.10;1.63;;;23.70;99.90;;;;;;5023670;28;20454;-79
2022/06/24 00:22:04;;;;;;;2.60;1.40;;;23.70;99.90;;;;;;5024478;28;20467;-78
2022/06/24 00:24:35;;;;;;;3.43;1.00;;;23.60;99.90;;;;;;5024081;28;20448;-79
2022/06/24 00:27:05;;;;;;;2.63;0.93;;;23.70;99.90;;;;;;5023868;28;20469;-80
2022/06/24 00:29:34;;;;;;;1.97;0.90;;;23.70;99.90;;;;;;5025528;28;20445;-79
2022/06/24 00:32:05;;;;;;;3.50;0.87;;;23.90;99.90;;;;;;5020944;28;20455;-79
2022/06/24 00:34:34;;;;;;;3.87;1.00;;;23.90;99.90;;;;;;5026946;28;20462;-79
2022/06/24 00:37:25;;;;;;;1.43;1.10;;;23.80;99.90;;;;;;5033558;28;20519;-79
2022/06/24 00:39:56;;;;;;;3.53;1.57;;;23.80;99.90;;;;;;5028392;28;20564;-79
2022/06/24 00:42:25;;;;;;;2.70;1.00;;;23.80;99.90;;;;;;5024846;28;20464;-78
2022/06/24 00:45:15;;;;;;;1.00;0.90;;;23.70;99.90;;;;;;5022875;28;20449;-79
2022/06/24 00:47:43;;;;;;;2.00;0.97;;;23.80;99.90;;;;;;5026233;28;20995;-79
2022/06/24 00:50:24;;;;;;;1.27;0.80;;;23.80;99.90;;;;;;5030272;28;20453;-79
2022/06/24 00:52:54;;;;;;;4.03;1.03;;;23.70;99.90;;;;;;5031402;28;20494;-79
2022/06/24 00:55:26;;;;;;;3.80;0.83;;;23.50;99.90;;;;;;5030530;28;20514;-79
2022/06/24 00:57:55;;;;;;;1.43;1.00;;;23.40;1.00;;;;;;5031179;28;20471;-79
2022/06/24 01:00:25;;;;;;;2.60;1.33;;;23.30;1.00;;;;;;5031975;28;20455;-78
2022/06/24 01:02:59;;;;;;;3.07;1.23;;;23.30;1.00;;;;;;5032125;28;20446;-79
2022/06/24 01:05:28;;;;;;;1.33;1.10;;;23.30;1.00;;;;;;5029021;28;20983;-79
2022/06/24 01:07:57;;;;;;;4.87;1.00;;;23.20;1.00;;;;;;5031569;28;20493;-79
2022/06/24 01:10:27;;;;;;;1.10;1.00;;;23.10;1.00;;;;;;5030959;28;20455;-79
2022/06/24 01:12:55;;;;;;;3.23;1.10;;;22.90;1.00;;;;;;5029429;28;20460;-79
2022/06/24 01:15:23;;;;;;;2.17;1.00;;;22.80;1.00;;;;;;5030736;28;20470;-78
2022/06/24 01:17:52;;;;;;;3.63;1.20;;;22.80;1.00;;;;;;5033909;28;20488;-78
2022/06/24 01:20:20;;;;;;;1.93;1.27;;;22.90;1.00;;;;;;5029696;28;21238;-79
2022/06/24 01:22:50;;;;;;;4.97;1.37;;;22.80;1.00;;;;;;5028655;28;20459;-79
2022/06/24 01:25:18;;;;;;;6.60;0.93;;;22.90;1.00;;;;;;5028937;28;20837;-78
2022/06/24 01:27:46;;;;;;;2.87;1.40;;;22.90;1.00;;;;;;5030425;28;20478;-79
2022/06/24 01:30:14;;;;;;;1.20;1.10;;;22.80;1.00;;;;;;5028343;28;20453;-80
2022/06/24 01:32:43;;;;;;;5.03;1.23;;;22.70;1.00;;;;;;5028364;28;20474;-79
2022/06/24 01:35:13;;;;;;;2.10;1.17;;;22.90;1.00;;;;;;5027716;28;20461;-79
2022/06/24 01:37:41;;;;;;;1.90;1.00;;;23.00;1.00;;;;;;5032992;28;20490;-78
2022/06/24 01:40:13;;;;;;;2.77;1.30;;;23.00;1.00;;;;;;5029757;28;20463;-79
2022/06/24 01:42:41;;;;;;;3.33;1.30;;;22.90;1.00;;;;;;5030368;28;20836;-79
2022/06/24 01:45:10;;;;;;;1.73;1.30;;;23.00;1.00;;;;;;5028749;28;20460;-79
2022/06/24 01:47:38;;;;;;;3.17;1.10;;;23.10;1.00;;;;;;5032284;28;20493;-79
2022/06/24 01:50:07;;;;;;;2.20;1.10;;;23.10;1.00;;;;;;5028187;28;20495;-79
2022/06/24 01:52:36;;;;;;;1.30;1.00;;;23.10;1.00;;;;;;5029440;28;20506;-79
2022/06/24 01:55:05;;;;;;;2.40;1.10;;;23.10;1.00;;;;;;5031307;28;20468;-79
2022/06/24 01:57:35;;;;;;;1.50;1.00;;;23.00;1.00;;;;;;5031561;28;20463;-79
2022/06/24 02:00:04;;;;;;;1.80;1.00;;;23.00;1.00;;;;;;5023662;28;20450;-79
2022/06/24 02:02:33;;;;;;;4.20;1.37;;;23.00;1.00;;;;;;5030256;28;20962;-79
2022/06/24 02:05:03;;;;;;;6.87;1.70;;;23.00;1.00;;;;;;5026815;28;20528;-79
2022/06/24 02:07:31;;;;;;;1.93;0.90;;;23.10;1.00;;;;;;5029979;28;20494;-78
2022/06/24 02:15:32;;;;;;;2.87;1.00;;;23.20;1.00;;;;;;5027733;28;20472;-78
2022/06/24 02:18:00;;;;;;;7.70;1.90;;;23.30;1.00;;;;;;5026338;28;20566;-79
2022/06/24 02:20:29;;;;;;;2.23;1.10;;;23.20;1.00;;;;;;5026543;28;20452;-79
2022/06/24 02:22:57;;;;;;;1.97;1.43;;;23.20;99.90;;;;;;5027194;28;20517;-78
2022/06/24 02:25:25;;;;;;;4.50;1.10;;;23.20;99.90;;;;;;5027007;28;20455;-78
2022/06/24 02:27:55;;;;;;;5.53;1.20;;;23.20;99.90;;;;;;5026566;28;20541;-78
2022/06/24 02:30:23;;;;;;;2.60;0.97;;;23.10;99.90;;;;;;5024682;28;20481;-79
2022/06/24 02:32:51;;;;;;;3.63;1.00;;;23.20;99.90;;;;;;5028371;28;20546;-78
2022/06/24 02:35:19;;;;;;;2.40;1.17;;;23.20;99.90;;;;;;5028602;28;20468;-78
2022/06/24 02:37:47;;;;;;;2.40;1.20;;;23.20;99.90;;;;;;5027340;28;20500;-78
2022/06/24 02:43:03;;;;;;;2.20;1.00;;;23.10;99.90;;;;;;5021139;28;20459;-79
2022/06/24 02:45:36;;;;;;;5.40;1.20;;;23.00;99.90;;;;;;5023853;28;20490;-79
2022/06/24 02:48:04;;;;;;;4.47;1.37;;;23.10;99.90;;;;;;5022411;28;20865;-78
2022/06/24 02:50:37;;;;;;;2.37;1.10;;;23.10;99.90;;;;;;5022574;28;20572;-78
2022/06/24 02:53:14;;;;;;;2.77;1.23;;;23.10;99.90;;;;;;5024491;28;20458;-78
2022/06/24 02:55:44;;;;;;;2.10;1.00;;;23.10;99.90;;;;;;5026735;28;20943;-78
2022/06/24 02:58:14;;;;;;;3.80;1.93;;;23.10;99.90;;;;;;5022262;28;20479;-78
2022/06/24 03:00:43;;;;;;;3.43;1.07;;;22.90;99.90;;;;;;5020899;28;20474;-79
2022/06/24 03:03:12;;;;;;;2.10;0.83;;;22.90;99.90;;;;;;5024278;28;20479;-79
2022/06/24 03:05:42;;;;;;;2.90;1.20;;;23.00;99.90;;;;;;5024024;28;20448;-79
2022/06/24 03:08:11;;;;;;;2.30;1.13;;;23.00;99.90;;;;;;5024285;28;20479;-78
2022/06/24 03:10:40;;;;;;;1.97;1.37;;;23.10;99.90;;;;;;5026017;28;20480;-78
2022/06/24 03:13:09;;;;;;;5.23;1.30;;;22.90;99.90;;;;;;5021712;28;20468;-78
2022/06/24 03:15:39;;;;;;;3.03;1.20;;;22.90;99.90;;;;;;5024288;28;20466;-78
2022/06/24 03:18:08;;;;;;;1.33;1.00;;;22.90;99.90;;;;;;5021779;28;20547;-79
2022/06/24 03:20:36;;;;;;;1.77;1.20;;;22.90;99.90;;;;;;5026183;28;20810;-78
2022/06/24 03:23:12;;;;;;;4.37;1.50;;;23.00;99.90;;;;;;5021190;28;20503;-78
2022/06/24 03:25:40;;;;;;;3.57;1.23;;;23.00;99.90;;;;;;5020479;28;20476;-79
2022/06/24 03:28:09;;;;;;;2.53;1.37;;;22.90;99.90;;;;;;5022323;28;20530;-78
2022/06/24 03:30:38;;;;;;;5.07;1.23;;;22.90;99.90;;;;;;5024626;28;21069;-78
2022/06/24 03:33:07;;;;;;;2.10;1.10;;;22.90;99.90;;;;;;5020566;28;20469;-79
2022/06/24 03:35:36;;;;;;;1.70;1.00;;;22.80;99.90;;;;;;5019040;28;20459;-79
2022/06/24 03:38:04;;;;;;;1.87;1.30;;;22.80;99.90;;;;;;5023783;28;20522;-79
2022/06/24 03:40:32;;;;;;;3.20;1.30;;;22.80;99.90;;;;;;5030930;28;20970;-79
2022/06/24 03:43:00;;;;;;;1.93;1.30;;;22.80;99.90;;;;;;5026474;28;20463;-78
2022/06/24 03:45:29;;;;;;;2.97;1.30;;;22.70;99.90;;;;;;5024070;28;20455;-79
2022/06/24 03:47:58;;;;;;;2.23;1.40;;;22.80;99.90;;;;;;5023059;28;20464;-80
2022/06/24 03:50:26;;;;;;;2.43;1.30;;;22.70;99.90;;;;;;5025023;28;20473;-79
2022/06/24 03:52:55;;;;;;;4.00;1.40;;;22.70;99.90;;;;;;5022370;28;20468;-79
2022/06/24 03:55:23;;;;;;;1.83;1.20;;;22.70;99.90;;;;;;5024589;28;21072;-79
2022/06/24 03:57:52;;;;;;;2.90;1.10;;;22.60;99.90;;;;;;5025696;28;20847;-79
2022/06/24 04:00:20;;;;;;;4.63;1.50;;;22.60;99.90;;;;;;5023067;28;20454;-79
2022/06/24 04:02:48;;;;;;;4.13;1.00;;;22.60;99.90;;;;;;5023119;28;20489;-78
2022/06/24 04:05:18;;;;;;;3.43;1.83;;;22.60;99.90;;;;;;5026021;28;20455;-78
2022/06/24 04:07:46;;;;;;;1.80;1.33;;;22.60;99.90;;;;;;5019937;28;20479;-79
2022/06/24 04:10:14;;;;;;;2.17;1.30;;;22.60;99.90;;;;;;5021756;28;20558;-79
2022/06/24 04:12:43;;;;;;;3.80;1.60;;;22.50;99.90;;;;;;5026512;28;20487;-79
2022/06/24 04:15:18;;;;;;;3.43;1.30;;;22.50;99.90;;;;;;5021231;28;20467;-79
2022/06/24 04:17:47;;;;;;;2.73;1.20;;;22.50;99.90;;;;;;5019965;28;20505;-79
2022/06/24 04:20:18;;;;;;;1.70;1.33;;;22.50;99.90;;;;;;5019358;28;20473;-79
2022/06/24 04:22:48;;;;;;;3.23;1.10;;;22.40;1.00;;;;;;5019146;28;20465;-79
2022/06/24 04:25:17;;;;;;;2.40;1.40;;;22.30;1.00;;;;;;5027759;28;20454;-79
2022/06/24 04:27:45;;;;;;;2.03;1.03;;;22.40;1.00;;;;;;5022603;28;20563;-78
2022/06/24 04:30:14;;;;;;;1.90;1.20;;;22.50;99.90;;;;;;5024283;28;20486;-79
2022/06/24 04:32:42;;;;;;;4.60;1.20;;;22.50;99.90;;;;;;5024119;28;20491;-79
2022/06/24 04:35:11;;;;;;;2.23;1.10;;;22.60;99.90;;;;;;5030696;28;20588;-79
2022/06/24 04:37:42;;;;;;;2.63;1.30;;;22.60;99.90;;;;;;5020069;28;20507;-80
2022/06/24 04:40:12;;;;;;;2.40;1.20;;;22.60;99.90;;;;;;5029657;28;20518;-79
2022/06/24 04:42:41;;;;;;;1.50;1.00;;;22.60;99.90;;;;;;5026107;28;21318;-77
2022/06/24 04:45:09;;;;;;;2.37;1.57;;;22.50;99.90;;;;;;5024370;28;20983;-75
2022/06/24 04:47:38;;;;;;;3.33;1.20;;;22.40;1.00;;;;;;5024439;28;20475;-76
2022/06/24 04:50:06;;;;;;;3.10;1.60;;;22.30;1.00;;;;;;5024665;28;20476;-75
2022/06/24 04:52:35;;;;;;;3.73;1.40;;;22.20;1.00;;;;;;5026094;28;20459;-76
2022/06/24 04:55:07;;;;;;;3.17;1.67;;;22.10;1.00;;;;;;5023125;28;20951;-77
2022/06/24 04:57:35;;;;;;;2.23;2.03;;;22.10;1.00;;;;;;5028723;28;20475;-84
2022/06/24 05:00:05;;;;;;;2.40;1.20;;;22.30;1.00;;;;;;5027353;28;20532;-83
2022/06/24 05:02:33;;;;;;;1.80;1.20;;;22.40;1.00;;;;;;5029726;28;20551;-84
2022/06/24 05:05:03;;;;;;;3.33;1.63;;;22.50;1.00;;;;;;5031308;28;20451;-83
2022/06/24 05:07:31;;;;;;;3.13;1.60;;;22.50;1.00;;;;;;5062324;28;20507;-84
2022/06/24 05:10:00;;;;;;;2.30;1.20;;;22.50;1.00;;;;;;5028830;28;20467;-82
2022/06/24 05:12:29;;;;;;;4.50;1.80;;;22.60;1.00;;;;;;5063967;28;20470;-84
2022/06/24 05:14:58;;;;;;;2.40;1.40;;;22.50;1.00;;;;;;5030762;28;20467;-85
2022/06/24 05:17:27;;;;;;;2.00;1.30;;;22.50;1.00;;;;;;5032697;28;20486;-84
2022/06/24 05:19:55;;;;;;;5.37;1.70;;;22.50;1.00;;;;;;5028647;28;20457;-84
2022/06/24 05:22:24;;;;;;;1.30;1.20;;;22.50;1.00;;;;;;5033340;28;20487;-83
2022/06/24 05:24:52;;;;;;;1.70;1.20;;;22.50;1.00;;;;;;5028738;28;20447;-83
2022/06/24 05:27:20;;;;;;;2.73;1.60;;;22.50;1.00;;;;;;5029737;28;20487;-83
2022/06/24 05:29:50;;;;;;;4.00;1.20;;;22.40;1.00;;;;;;5038044;28;20483;-84
2022/06/24 05:32:18;;;;;;;3.00;1.20;;;22.40;1.00;;;;;;5034716;28;20473;-83
2022/06/24 05:34:47;;;;;;;1.83;1.40;;;22.40;1.00;;;;;;5030169;28;20463;-83
2022/06/24 05:37:15;;;;;;;3.23;1.37;;;22.40;1.00;;;;;;5035896;28;20510;-83
2022/06/24 05:39:43;;;;;;;3.43;1.13;;;22.50;1.00;;;;;;5033135;28;20550;-83
2022/06/24 05:42:12;;;;;;;1.33;1.23;;;22.40;1.00;;;;;;5036637;28;20460;-82
2022/06/24 05:44:40;;;;;;;2.80;1.70;;;22.50;1.00;;;;;;5037685;28;20457;-84
2022/06/24 05:47:10;;;;;;;3.90;1.33;;;22.50;1.00;;;;;;5033610;28;20482;-84
2022/06/24 05:49:38;;;;;;;3.70;1.40;;;22.60;1.00;;;;;;5035764;28;20456;-84
2022/06/24 05:52:08;;;;;;;1.97;1.30;;;22.70;1.00;;;;;;5034846;28;20983;-84
2022/06/24 05:57:22;;;;;;;3.63;1.60;;;22.70;1.00;;;;;;5037977;28;20477;-85
2022/06/24 05:59:50;;;;;;;4.17;1.30;;;22.50;1.00;;;;;;5037250;28;20463;-84
2022/06/24 06:02:22;;;;;;;3.30;2.00;;;22.40;1.00;;;;;;5036383;28;20440;-85
2022/06/24 06:04:51;;;;;;;3.43;1.40;;;22.30;1.00;;;;;;5035718;28;20472;-85
2022/06/24 06:07:20;;;;;;;2.50;1.60;;;22.30;1.00;;;;;;5034261;28;20470;-84
2022/06/24 06:09:48;;;;;;;2.00;1.67;;;22.40;1.00;;;;;;5038554;28;20483;-84
2022/06/24 06:12:17;;;;;;;2.47;1.43;;;22.50;1.00;;;;;;5031278;28;20486;-84
2022/06/24 06:14:45;;;;;;;3.37;1.40;;;22.50;1.00;;;;;;5023686;28;20475;-84
2022/06/24 06:17:14;;;;;;;1.83;1.57;;;22.60;1.00;;;;;;5028745;28;20483;-84
2022/06/24 06:19:43;;;;;;;3.37;1.57;;;22.20;1.00;;;;;;5029300;28;20474;-84
2022/06/24 06:22:12;;;;;;;2.63;1.37;;;22.30;1.00;;;;;;5025308;28;20986;-83
2022/06/24 06:24:40;;;;;;;4.27;1.33;;;22.50;1.00;;;;;;5036313;28;20444;-85
2022/06/24 06:27:09;;;;;;;4.07;1.23;;;22.40;1.00;;;;;;5033480;28;21009;-86
2022/06/24 06:29:37;;;;;;;1.77;1.30;;;22.40;1.00;;;;;;5032244;28;20466;-83
2022/06/24 06:32:06;;;;;;;4.93;3.00;;;22.20;1.00;;;;;;5040081;28;20489;-85
2022/06/24 06:34:36;;;;;;;4.23;1.57;;;22.20;1.00;;;;;;5046843;28;20458;-86
2022/06/24 06:37:06;;;;;;;4.70;1.67;;;22.10;1.00;;;;;;5034122;28;20908;-85
2022/06/24 06:39:36;;;;;;;2.00;1.30;;;22.20;1.00;;;;;;5043445;28;20452;-85
2022/06/24 06:42:05;;;;;;;2.27;1.40;;;22.40;1.00;;;;;;5024357;28;20840;-85
2022/06/24 06:44:34;;;;;;;2.20;1.90;;;22.50;1.00;;;;;;5027414;28;20461;-85
2022/06/24 06:47:02;;;;;;;2.50;1.90;;;22.70;1.00;;;;;;5034080;28;20487;-85
2022/06/24 06:49:32;;;;;;;2.87;1.40;;;22.90;1.00;;;;;;5033662;28;20813;-85
2022/06/24 06:52:01;;;;;;;2.63;1.30;;;23.00;1.00;;;;;;5036530;28;20472;-85
2022/06/24 06:54:30;;;;;;;1.70;1.60;;;23.00;1.00;;;;;;5034578;28;20465;-85
2022/06/24 06:56:59;;;;;;;1.90;1.57;;;23.10;1.00;;;;;;5033066;28;20473;-83
2022/06/24 06:59:27;;;;;;;5.07;1.93;;;23.20;99.90;;;;;;5044217;28;20543;-85
2022/06/24 07:01:56;;;;;;;1.80;1.37;;;23.20;99.90;;;;;;5042797;28;21186;-85
2022/06/24 07:04:24;;;;;;;4.60;1.60;;;23.20;99.90;;;;;;5034189;28;20512;-84
2022/06/24 07:06:53;;;;;;;2.00;1.40;;;23.10;99.90;;;;;;5041449;28;20464;-85
2022/06/24 07:09:21;;;;;;;1.70;1.60;;;23.10;99.90;;;;;;5042558;28;20467;-85
2022/06/24 07:11:53;;;;;;;1.70;1.60;;;23.10;99.90;;;;;;5039626;28;20479;-82
2022/06/24 07:14:21;;;;;;;2.60;2.03;;;23.20;99.90;;;;;;5024033;28;20457;-84
2022/06/24 07:16:50;;;;;;;4.83;1.93;;;23.30;99.90;;;;;;5030841;28;20451;-84
2022/06/24 07:19:18;;;;;;;2.60;1.93;;;23.30;99.90;;;;;;5034063;28;20516;-84
2022/06/24 07:21:46;;;;;;;4.10;1.93;;;23.40;99.90;;;;;;5038345;28;20482;-84
2022/06/24 07:24:14;;;;;;;3.20;1.37;;;23.40;99.90;;;;;;5034264;28;20453;-84
2022/06/24 07:26:43;;;;;;;2.00;1.43;;;23.30;99.90;;;;;;5033475;28;20551;-83
2022/06/24 07:29:14;;;;;;;2.93;1.60;;;23.30;99.90;;;;;;5037726;28;20440;-84
2022/06/24 07:31:43;;;;;;;2.63;1.50;;;23.30;99.90;;;;;;5034145;28;20484;-83
2022/06/24 07:34:11;;;;;;;3.43;2.23;;;23.30;99.90;;;;;;5033434;28;20530;-85
2022/06/24 07:36:40;;;;;;;1.90;1.30;;;23.50;99.90;;;;;;5032641;28;20464;-84
2022/06/24 07:39:08;;;;;;;2.20;1.87;;;23.50;99.90;;;;;;5037834;28;20449;-84
2022/06/24 07:41:37;;;;;;;2.13;1.40;;;23.50;99.90;;;;;;5038170;28;20467;-84
2022/06/24 07:44:05;;;;;;;3.43;1.63;;;23.60;99.90;;;;;;5041566;28;20444;-84
2022/06/24 07:46:35;;;;;;;2.60;1.50;;;23.60;99.90;;;;;;5034834;28;20456;-84
2022/06/24 07:49:03;;;;;;;2.80;1.30;;;23.70;99.90;;;;;;5037895;28;20518;-84
2022/06/24 07:51:32;;;;;;;1.60;1.40;;;23.80;99.90;;;;;;5033127;28;20465;-84
2022/06/24 07:54:00;;;;;;;2.07;1.40;;;23.90;99.90;;;;;;5032473;28;20518;-83
2022/06/24 07:59:14;;;;;;;2.70;1.40;;;23.90;99.90;;;;;;5028463;28;20444;-82
2022/06/24 08:01:44;;;;;;;1.70;1.27;;;23.80;99.90;;;;;;5031444;28;20452;-83
2022/06/24 08:04:12;;;;;;;1.23;1.13;;;23.70;99.90;;;;;;5033577;28;20460;-84
2022/06/24 08:06:46;;;;;;;1.53;1.10;;;23.60;99.90;;;;;;5038163;28;20448;-84
2022/06/24 08:09:15;;;;;;;1.50;1.27;;;23.50;99.90;;;;;;5031693;28;20460;-83
2022/06/24 08:11:43;;;;;;;2.03;1.37;;;23.60;99.90;;;;;;5031045;28;20484;-84
2022/06/24 08:14:13;;;;;;;1.63;1.23;;;23.80;99.90;;;;;;5032381;28;20883;-84
2022/06/24 08:16:41;;;;;;;2.80;1.50;;;23.80;99.90;;;;;;5032739;28;20444;-84
2022/06/24 08:19:16;;;;;;;3.50;1.40;;;23.80;99.90;;;;;;5021664;28;20455;-83
2022/06/24 08:21:45;;;;;;;2.50;1.30;;;23.80;99.90;;;;;;5031847;28;20455;-84
2022/06/24 08:24:14;;;;;;;2.63;1.10;;;23.90;99.90;;;;;;5046759;28;20460;-84
2022/06/24 08:26:43;;;;;;;1.37;1.27;;;24.10;99.90;;;;;;5031672;28;20449;-83
2022/06/24 08:29:11;;;;;;;1.40;1.30;;;24.30;99.90;;;;;;5021143;28;20452;-85
2022/06/24 08:31:40;;;;;;;2.93;2.20;;;24.30;99.90;;;;;;5029698;28;20488;-83
2022/06/24 08:34:08;;;;;;;2.40;1.57;;;24.20;99.90;;;;;;5023862;28;20471;-84
2022/06/24 08:36:38;;;;;;;2.50;1.73;;;24.30;99.90;;;;;;5030560;28;20467;-82
2022/06/24 08:39:07;;;;;;;2.50;1.40;;;24.40;99.90;;;;;;5031245;28;20956;-84
2022/06/24 08:41:41;;;;;;;3.40;1.57;;;24.50;99.90;;;;;;5039068;28;20453;-84
2022/06/24 08:44:13;;;;;;;1.63;1.17;;;24.50;99.90;;;;;;5031941;28;20448;-84
2022/06/24 08:46:42;;;;;;;1.30;1.20;;;24.60;99.90;;;;;;5032139;28;20450;-86
2022/06/24 08:49:10;;;;;;;2.83;1.50;;;24.50;99.90;;;;;;5023270;28;20445;-84
2022/06/24 08:51:42;;;;;;;2.00;1.10;;;24.60;99.90;;;;;;5072858;28;20891;-84
2022/06/24 08:54:12;;;;;;;3.20;1.13;;;24.70;99.90;;;;;;5025755;28;20544;-85
2022/06/24 08:56:53;;;;;;;1.23;1.13;;;24.70;99.90;;;;;;5027052;28;20444;-84
2022/06/24 08:59:22;;;;;;;1.60;0.97;;;24.70;99.90;;;;;;5045630;28;20460;-85
2022/06/24 09:01:50;;;;;;;2.50;1.23;;;24.70;99.90;;;;;;5043810;28;20437;-85
2022/06/24 09:04:23;;;;;;;1.67;1.27;;;24.60;99.90;;;;;;5031662;28;20943;-85
2022/06/24 09:06:54;;;;;;;1.60;1.40;;;24.50;99.90;;;;;;5035504;28;20505;-85
2022/06/24 09:09:26;;;;;;;1.10;1.00;;;24.50;99.90;;;;;;5037622;28;20451;-84
2022/06/24 09:11:57;;;;;;;1.33;1.00;;;24.60;99.90;;;;;;5041026;28;20445;-84
2022/06/24 09:14:44;;;;;;;2.20;2.00;;;24.70;99.90;;;;;;5027913;28;20456;-84
2022/06/24 09:17:13;;;;;;;1.10;1.00;;;24.70;99.90;;;;;;5027662;28;20484;-84
2022/06/24 09:19:41;;;;;;;3.03;0.90;;;24.70;99.90;;;;;;5047524;28;20455;-85
2022/06/24 09:22:12;;;;;;;1.00;0.90;;;24.80;99.90;;;;;;5040055;28;20950;-84
2022/06/24 09:24:48;;;;;;;1.37;1.20;;;24.90;99.90;;;;;;5037361;28;20468;-84
2022/06/24 09:27:17;;;;;;;2.40;1.00;;;24.90;99.90;;;;;;5044155;28;20475;-84
2022/06/24 09:29:50;;;;;;;2.60;1.13;;;24.90;99.90;;;;;;5048588;28;21043;-84
2022/06/24 09:32:18;;;;;;;3.23;1.20;;;25.00;99.90;;;;;;5035874;28;20480;-84
2022/06/24 09:35:05;;;;;;;1.30;1.10;;;25.00;99.90;;;;;;5033644;28;20474;-85
2022/06/24 09:37:43;;;;;;;4.63;1.40;;;25.00;99.90;;;;;;5030042;28;20480;-84
2022/06/24 09:40:25;;;;;;;1.30;1.20;;;25.10;99.90;;;;;;5031403;28;20457;-84
2022/06/24 09:42:59;;;;;;;1.30;1.20;;;25.20;99.90;;;;;;5035615;28;20460;-85
2022/06/24 09:45:44;;;;;;;3.83;1.67;;;25.30;99.90;;;;;;5033602;28;20814;-85
2022/06/24 09:48:13;;;;;;;1.63;1.30;;;25.30;99.90;;;;;;5036969;28;20464;-84
2022/06/24 09:50:42;;;;;;;1.13;1.00;;;25.30;99.90;;;;;;5036839;28;21238;-84
2022/06/24 09:53:14;;;;;;;2.20;0.80;;;25.20;99.90;;;;;;5032513;28;20476;-84
2022/06/24 09:55:43;;;;;;;1.10;1.00;;;25.30;99.90;;;;;;5042416;28;20466;-84
2022/06/24 09:58:11;;;;;;;1.80;1.70;;;25.30;99.90;;;;;;5035652;28;20483;-85
2022/06/24 10:00:40;;;;;;;1.50;1.07;;;25.30;99.90;;;;;;5052913;28;20965;-84
2022/06/24 10:03:10;;;;;;;1.43;1.30;;;25.50;99.90;;;;;;5037967;28;20459;-84
2022/06/24 10:05:41;;;;;;;1.73;1.13;;;25.60;99.90;;;;;;5033511;28;20452;-85
2022/06/24 10:08:13;;;;;;;1.30;0.80;;;25.70;99.90;;;;;;5033770;28;20468;-85
2022/06/24 10:10:47;;;;;;;1.33;0.90;;;25.80;99.90;;;;;;5031569;28;20559;-84
2022/06/24 10:13:25;;;;;;;1.43;0.90;;;25.80;99.90;;;;;;5039859;28;20487;-86
2022/06/24 10:15:55;;;;;;;1.20;1.10;;;25.70;99.90;;;;;;5040797;28;20948;-84
2022/06/24 10:18:27;;;;;;;1.20;1.10;;;25.80;99.90;;;;;;5034579;28;20472;-84
2022/06/24 10:20:58;;;;;;;3.03;1.23;;;25.80;99.90;;;;;;5078920;28;20494;-84
2022/06/24 10:23:39;;;;;;;1.70;1.10;;;25.80;99.90;;;;;;5037726;28;20455;-84
2022/06/24 10:26:13;;;;;;;1.40;1.17;;;25.80;99.90;;;;;;5032877;28;20476;-85
2022/06/24 10:29:18;;;;;;;1.40;1.30;;;25.70;99.90;;;;;;5034503;28;20483;-85
2022/06/24 10:31:54;;;;;;;1.10;1.00;;;25.80;99.90;;;;;;5035565;28;20482;-84
2022/06/24 10:34:33;;;;;;;1.53;1.00;;;25.80;99.90;;;;;;5032408;28;20475;-85
2022/06/24 10:37:05;;;;;;;1.40;1.07;;;25.80;99.90;;;;;;5033896;28;20466;-84
2022/06/24 10:39:44;;;;;;;1.30;0.90;;;25.80;99.90;;;;;;5034717;28;20455;-84
2022/06/24 10:42:14;;;;;;;1.10;1.00;;;25.80;99.90;;;;;;5039595;28;20947;-84
2022/06/24 10:44:55;;;;;;;1.07;1.00;;;25.80;99.90;;;;;;5021677;28;20449;-84
2022/06/24 10:47:44;;;;;;;2.20;1.10;;;25.90;99.90;;;;;;5048487;28;20521;-84
2022/06/24 10:50:20;;;;;;;1.00;1.00;;;26.00;99.90;;;;;;5027657;28;20471;-84
2022/06/24 10:53:04;;;;;;;1.20;1.10;;;26.00;99.90;;;;;;5035837;28;20554;-84
2022/06/24 10:55:41;;;;;;;1.33;1.00;;;25.90;99.90;;;;;;5037232;28;20455;-84
2022/06/24 10:58:13;;;;;;;1.43;1.33;;;25.90;99.90;;;;;;5034036;28;20475;-84
2022/06/24 11:00:54;;;;;;;0.97;0.90;;;25.90;99.90;;;;;;5033630;28;20452;-84
2022/06/24 11:03:33;;;;;;;1.43;1.10;;;25.80;99.90;;;;;;5029478;28;20449;-84
2022/06/24 11:06:02;;;;;;;1.20;1.10;;;25.80;99.90;;;;;;5046547;28;20456;-84
2022/06/24 11:08:30;;;;;;;0.83;0.83;;;25.80;99.90;;;;;;5033830;28;20486;-84
2022/06/24 11:11:00;;;;;;;1.10;1.00;;;25.70;99.90;;;;;;5024769;28;20456;-85
2022/06/24 11:13:29;;;;;;;0.90;0.90;;;25.60;99.90;;;;;;5040864;28;20472;-85
2022/06/24 11:15:58;;;;;;;1.17;1.07;;;25.70;99.90;;;;;;5030409;28;20824;-85
2022/06/24 11:18:28;;;;;;;1.10;1.00;;;25.70;99.90;;;;;;5032034;28;20484;-84
2022/06/24 11:20:59;;;;;;;1.20;0.83;;;25.90;99.90;;;;;;5042958;28;20506;-84
2022/06/24 11:23:29;;;;;;;1.00;0.90;;;26.00;99.90;;;;;;5033049;28;20527;-83
2022/06/24 11:26:03;;;;;;;1.40;1.30;;;25.90;99.90;;;;;;5024967;28;20840;-84
2022/06/24 11:28:34;;;;;;;1.37;1.20;;;26.00;99.90;;;;;;5040276;28;20464;-84
2022/06/24 11:31:19;;;;;;;3.63;1.30;;;26.10;99.90;;;;;;5032981;28;20461;-85
2022/06/24 11:33:50;;;;;;;3.00;1.30;;;26.00;99.90;;;;;;5034722;28;20468;-85
2022/06/24 11:36:21;;;;;;;1.53;1.40;;;26.10;99.90;;;;;;5033982;28;20440;-83
2022/06/24 11:38:54;;;;;;;1.43;1.20;;;26.10;99.90;;;;;;5035395;28;21015;-84
2022/06/24 11:41:25;;;;;;;2.30;1.20;;;26.10;99.90;;;;;;5035318;28;20460;-84
2022/06/24 11:44:14;;;;;;;1.03;0.97;;;26.10;99.90;;;;;;5035610;28;20460;-83
2022/06/24 11:46:49;;;;;;;1.40;1.20;;;26.20;99.90;;;;;;5032979;28;20860;-85
2022/06/24 11:49:21;;;;;;;1.47;1.20;;;26.20;99.90;;;;;;5030480;28;20460;-81
2022/06/24 11:51:50;;;;;;;1.93;1.40;;;26.20;99.90;;;;;;5027160;28;21308;-86
2022/06/24 11:54:19;;;;;;;1.63;1.53;;;26.20;99.90;;;;;;5026201;28;20903;-85
2022/06/24 11:56:49;;;;;;;1.40;1.30;;;26.30;99.90;;;;;;5022662;28;20464;-83
2022/06/24 11:59:21;;;;;;;2.50;1.23;;;26.30;99.90;;;;;;5027505;28;20458;-84
2022/06/24 12:01:50;;;;;;;2.00;1.30;;;26.30;99.90;;;;;;5032377;28;20449;-85
2022/06/24 12:04:22;;;;;;;1.83;1.47;;;26.30;99.90;;;;;;5016448;28;20441;-84
2022/06/24 12:06:51;;;;;;;1.73;1.30;;;26.30;99.90;;;;;;5028487;28;20468;-84
2022/06/24 12:09:20;;;;;;;1.40;1.20;;;26.30;99.90;;;;;;5034581;28;20456;-84
2022/06/24 12:11:50;;;;;;;1.50;1.40;;;26.30;99.90;;;;;;5023328;28;20457;-84
2022/06/24 12:14:18;;;;;;;1.70;1.40;;;26.30;99.90;;;;;;5025524;28;20488;-84
2022/06/24 12:17:00;;;;;;;1.90;1.40;;;26.30;99.90;;;;;;5028038;28;20541;-84
2022/06/24 12:19:30;;;;;;;2.30;1.63;;;26.30;99.90;;;;;;5030836;28;20465;-83
2022/06/24 12:22:10;;;;;;;1.50;1.33;;;26.20;99.90;;;;;;5031723;28;20819;-83
2022/06/24 12:24:40;;;;;;;2.10;1.90;;;26.10;99.90;;;;;;5028484;28;20489;-84
2022/06/24 12:27:12;;;;;;;2.03;1.20;;;26.00;99.90;;;;;;5030816;28;20476;-83
2022/06/24 12:29:42;;;;;;;1.40;1.30;;;26.00;99.90;;;;;;5030825;28;20456;-84
2022/06/24 12:32:15;;;;;;;1.43;1.30;;;25.90;99.90;;;;;;5028659;28;20467;-83
2022/06/24 12:34:55;;;;;;;2.43;1.93;;;25.80;99.90;;;;;;5062980;28;20480;-83
2022/06/24 12:37:23;;;;;;;2.00;1.27;;;25.80;99.90;;;;;;5032185;28;20468;-84
2022/06/24 12:39:53;;;;;;;2.40;1.30;;;25.80;99.90;;;;;;5030685;28;20475;-83
2022/06/24 12:42:25;;;;;;;1.33;1.23;;;25.70;99.90;;;;;;5031470;28;20453;-83
2022/06/24 12:44:58;;;;;;;1.73;1.20;;;25.70;99.90;;;;;;5059282;28;20544;-83
2022/06/24 12:53:02;;;;;;;4.63;1.20;;;25.60;99.90;;;;;;5019837;28;20467;-83
2022/06/24 12:55:32;;;;;;;2.90;1.33;;;25.60;99.90;;;;;;5028211;28;20473;-84
2022/06/24 12:58:02;;;;;;;1.50;1.40;;;25.50;99.90;;;;;;5029761;28;20480;-83
2022/06/24 13:00:31;;;;;;;3.00;1.80;;;25.60;99.90;;;;;;5062582;28;20980;-84
2022/06/24 13:02:59;;;;;;;1.97;1.30;;;25.60;99.90;;;;;;5031757;28;20456;-83
2022/06/24 13:05:28;;;;;;;1.30;1.20;;;25.60;99.90;;;;;;5031824;28;20864;-83
2022/06/24 13:07:57;;;;;;;2.00;1.60;;;25.50;99.90;;;;;;5023851;28;21008;-82
2022/06/24 13:10:25;;;;;;;1.80;1.40;;;25.60;99.90;;;;;;5023235;28;20449;-82
2022/06/24 13:12:54;;;;;;;1.53;1.13;;;25.60;99.90;;;;;;5030853;28;20452;-85
2022/06/24 13:15:25;;;;;;;2.07;1.03;;;25.60;99.90;;;;;;5030681;28;20483;-84
2022/06/24 13:17:54;;;;;;;1.50;1.10;;;25.60;99.90;;;;;;5031269;28;20476;-83
2022/06/24 13:20:22;;;;;;;1.47;1.13;;;25.60;99.90;;;;;;5024604;28;20543;-85
2022/06/24 13:22:51;;;;;;;2.33;1.17;;;25.60;99.90;;;;;;5028335;28;20484;-85
2022/06/24 13:25:19;;;;;;;1.63;1.20;;;25.60;99.90;;;;;;5029555;28;20447;-83
2022/06/24 13:27:48;;;;;;;1.33;1.23;;;25.60;99.90;;;;;;5030255;28;20480;-83